Time;durP1;ratioP1;P1;durP2;ratioP2;P2;SDS_P1;SDS_P2;PMS_P1;PMS_P2;Temp;Humidity;BMP_temperature;BMP_pressure;BME280_temperature;BME280_humidity;BME280_pressure;Samples;Min_cycle;Max_cycle;Signal;HPM_P1;HPM_P2
2023/10/26 00:01:56;;;;;;;6.20;4.10;;;;;;;12.19;84.96;97300.05;105929;1254;74352;-22
2023/10/26 00:04:23;;;;;;;7.30;4.80;;;;;;;12.33;83.47;97295.79;105748;1252;73256;-22
2023/10/26 00:06:50;;;;;;;11.60;4.80;;;;;;;12.12;83.38;97294.34;105544;1252;61029;-22
2023/10/26 00:09:17;;;;;;;6.30;4.60;;;;;;;11.74;84.46;97289.30;105835;1255;61105;-22
2023/10/26 00:11:44;;;;;;;6.10;4.30;;;;;;;11.56;85.29;97296.86;105844;1256;74342;-23
2023/10/26 00:14:11;;;;;;;8.30;3.60;;;;;;;11.62;85.60;97299.98;105904;1254;74446;-23
2023/10/26 00:16:38;;;;;;;6.70;4.40;;;;;;;11.89;84.52;97294.32;105876;1254;72687;-23
2023/10/26 00:19:05;;;;;;;8.80;4.40;;;;;;;11.98;83.97;97298.02;105876;1256;61176;-23
2023/10/26 00:21:32;;;;;;;11.20;4.80;;;;;;;11.92;84.24;97301.46;106028;1257;61141;-22
2023/10/26 00:23:59;;;;;;;6.40;4.50;;;;;;;11.74;84.78;97305.14;105928;1251;74401;-23
2023/10/26 00:26:26;;;;;;;3.90;2.80;;;;;;;11.52;86.25;97298.26;105927;1254;74369;-23
2023/10/26 00:28:54;;;;;;;5.90;3.50;;;;;;;11.92;85.27;97300.42;105622;1259;71353;-22
2023/10/26 00:31:20;;;;;;;7.50;4.70;;;;;;;12.23;83.20;97303.40;105620;1256;61173;-23
2023/10/26 00:33:47;;;;;;;8.40;3.80;;;;;;;12.17;83.06;97305.64;105814;1255;61186;-23
2023/10/26 00:36:14;;;;;;;8.40;4.20;;;;;;;11.97;83.54;97302.48;105777;1254;73891;-22
2023/10/26 00:38:41;;;;;;;5.00;4.30;;;;;;;11.74;84.53;97305.85;105708;1251;74283;-23
2023/10/26 00:41:10;;;;;;;5.80;2.80;;;;;;;11.73;84.70;97299.59;105611;1254;72464;-23
2023/10/26 00:43:37;;;;;;;4.10;3.10;;;;;;;12.04;82.60;97290.02;105844;1254;61183;-22
2023/10/26 00:46:04;;;;;;;3.70;3.10;;;;;;;12.05;80.48;97287.27;105819;1256;61086;-22
2023/10/26 00:48:31;;;;;;;4.90;3.00;;;;;;;11.99;79.27;97284.33;105740;1251;73539;-23
2023/10/26 00:50:59;;;;;;;4.40;3.40;;;;;;;11.91;79.65;97292.73;105656;1254;74332;-22
2023/10/26 00:53:25;;;;;;;3.50;2.50;;;;;;;11.70;80.71;97298.54;105875;1251;72522;-23
2023/10/26 00:55:52;;;;;;;3.40;2.30;;;;;;;11.78;81.04;97304.67;105581;1254;61978;-22
2023/10/26 00:58:20;;;;;;;4.40;3.20;;;;;;;12.10;79.66;97304.86;105720;1257;61144;-22
2023/10/26 01:00:47;;;;;;;5.30;3.50;;;;;;;12.08;79.87;97305.81;105764;1251;73794;-23
2023/10/26 01:03:14;;;;;;;7.80;2.80;;;;;;;11.93;80.42;97300.55;105913;1254;74220;-22
2023/10/26 01:05:41;;;;;;;4.00;3.60;;;;;;;11.62;81.28;97300.66;105759;1259;72584;-23
2023/10/26 01:08:08;;;;;;;4.70;2.50;;;;;;;11.61;82.11;97296.17;105931;1251;61081;-22
2023/10/26 01:10:35;;;;;;;5.10;3.20;;;;;;;11.85;81.19;97290.96;105728;1252;61170;-22
2023/10/26 01:13:03;;;;;;;6.10;3.50;;;;;;;12.11;79.71;97297.64;105219;1254;74262;-22
2023/10/26 01:15:30;;;;;;;4.50;3.00;;;;;;;12.10;79.72;97298.79;105665;1253;73068;-22
2023/10/26 01:17:57;;;;;;;4.90;3.20;;;;;;;11.79;80.67;97291.63;105899;1251;72550;-22
2023/10/26 01:20:24;;;;;;;4.20;3.30;;;;;;;11.50;81.72;97285.23;105938;1251;61049;-22
2023/10/26 01:22:51;;;;;;;3.60;2.30;;;;;;;11.30;82.84;97279.74;105465;1260;61155;-22
2023/10/26 01:25:17;;;;;;;4.70;3.10;;;;;;;11.61;81.87;97274.23;105578;1251;73672;-22
2023/10/26 01:27:46;;;;;;;7.00;3.10;;;;;;;11.74;80.74;97267.20;105623;1257;71989;-22
2023/10/26 01:30:13;;;;;;;4.50;3.40;;;;;;;11.73;80.29;97266.42;105787;1252;72502;-23
2023/10/26 01:32:40;;;;;;;4.00;3.20;;;;;;;11.51;80.82;97271.52;105920;1251;61052;-23
2023/10/26 01:35:08;;;;;;;4.50;2.90;;;;;;;11.25;81.74;97268.14;105897;1252;61202;-22
2023/10/26 01:37:37;;;;;;;4.00;2.20;;;;;;;11.09;82.27;97270.82;105707;1253;73768;-23
2023/10/26 01:40:07;;;;;;;2.70;2.30;;;;;;;11.44;81.63;97274.11;105654;1259;74178;-22
2023/10/26 01:42:34;;;;;;;4.00;2.70;;;;;;;11.77;80.15;97275.27;105714;1254;71159;-23
2023/10/26 01:45:02;;;;;;;3.80;3.10;;;;;;;11.70;79.52;97283.14;105712;1254;61130;-23
2023/10/26 01:47:29;;;;;;;4.50;3.10;;;;;;;11.52;80.38;97291.98;105692;1257;61159;-23
2023/10/26 01:49:56;;;;;;;4.40;3.10;;;;;;;11.32;80.88;97296.45;105894;1253;73704;-22
2023/10/26 01:52:22;;;;;;;4.00;2.80;;;;;;;11.08;81.52;97302.50;105967;1254;74007;-21
2023/10/26 01:54:49;;;;;;;3.90;2.30;;;;;;;10.93;82.66;97301.12;105817;1254;72807;-22
2023/10/26 01:57:17;;;;;;;4.10;2.00;;;;;;;11.39;82.55;97296.84;105705;1253;61126;-22
2023/10/26 01:59:44;;;;;;;5.60;3.00;;;;;;;11.88;81.09;97295.90;105747;1253;61106;-23
2023/10/26 02:02:10;;;;;;;4.20;3.20;;;;;;;11.92;80.38;97296.64;105841;1254;74392;-23
2023/10/26 02:04:37;;;;;;;4.40;2.90;;;;;;;11.76;80.70;97293.42;105967;1254;74169;-23
2023/10/26 02:07:05;;;;;;;6.20;3.50;;;;;;;11.53;81.23;97293.20;105739;1254;72403;-23
2023/10/26 02:09:32;;;;;;;4.30;3.10;;;;;;;11.33;81.84;97292.89;105939;1254;61134;-22
2023/10/26 02:11:59;;;;;;;2.70;2.20;;;;;;;11.16;82.72;97300.40;105629;1256;61157;-22
2023/10/26 02:14:26;;;;;;;6.70;2.70;;;;;;;11.63;82.56;97296.77;105748;1254;74071;-23
2023/10/26 02:16:53;;;;;;;4.60;3.40;;;;;;;12.13;80.66;97295.59;105526;1259;74405;-22
2023/10/26 02:19:20;;;;;;;3.50;2.70;;;;;;;12.19;80.00;97298.80;105913;1255;72229;-23
2023/10/26 02:21:47;;;;;;;4.70;3.40;;;;;;;12.01;80.04;97298.09;105725;1252;61753;-22
2023/10/26 02:24:14;;;;;;;4.20;3.40;;;;;;;11.74;80.52;97301.45;105544;1257;61154;-22
2023/10/26 02:26:41;;;;;;;5.80;3.50;;;;;;;11.49;81.16;97298.66;105901;1254;73766;-22
2023/10/26 02:29:08;;;;;;;7.30;2.40;;;;;;;11.26;81.77;97297.39;105756;1257;75018;-23
2023/10/26 02:31:35;;;;;;;3.50;2.10;;;;;;;11.61;81.78;97298.55;105608;1254;72659;-22
2023/10/26 02:34:02;;;;;;;3.80;2.80;;;;;;;12.00;80.53;97300.57;105664;1252;61154;-23
2023/10/26 02:36:28;;;;;;;8.80;3.00;;;;;;;11.93;80.09;97298.20;105807;1251;61126;-22
2023/10/26 02:38:56;;;;;;;4.60;2.90;;;;;;;11.74;80.38;97295.84;105641;1251;73778;-22
2023/10/26 02:41:23;;;;;;;4.60;2.90;;;;;;;11.48;80.82;97295.12;105842;1255;74866;-22
2023/10/26 02:43:50;;;;;;;7.40;3.00;;;;;;;11.14;81.94;97293.34;105895;1254;72697;-22
2023/10/26 02:46:17;;;;;;;4.60;2.50;;;;;;;10.80;83.96;97301.47;105868;1254;61944;-22
2023/10/26 02:48:43;;;;;;;3.80;2.60;;;;;;;11.05;84.37;97302.64;105858;1255;61141;-22
2023/10/26 02:51:11;;;;;;;4.00;2.90;;;;;;;11.45;82.34;97298.61;105711;1254;74245;-22
2023/10/26 02:53:38;;;;;;;4.60;3.00;;;;;;;11.34;82.01;97308.50;105806;1254;74189;-22
2023/10/26 02:56:06;;;;;;;3.80;2.50;;;;;;;10.99;83.24;97318.09;105511;1257;72679;-23
2023/10/26 02:58:34;;;;;;;5.50;3.30;;;;;;;10.70;84.65;97327.55;105628;1259;61184;-23
2023/10/26 03:01:03;;;;;;;4.80;3.10;;;;;;;10.60;85.57;97325.79;105695;1251;61070;-22
2023/10/26 03:03:30;;;;;;;3.50;3.00;;;;;;;10.83;85.15;97330.13;105937;1254;73802;-22
2023/10/26 03:06:21;;;;;;;7.70;4.10;;;;;;;10.88;84.95;97327.83;105748;1251;73208;-22
2023/10/26 03:08:48;;;;;;;5.10;3.40;;;;;;;10.86;84.99;97329.67;104927;1262;73146;-22
2023/10/26 03:11:15;;;;;;;5.60;4.00;;;;;;;10.60;85.62;97322.56;105036;1260;61132;-22
2023/10/26 03:13:42;;;;;;;4.50;3.20;;;;;;;10.31;86.89;97324.05;105143;1264;61328;-22
2023/10/26 03:16:09;;;;;;;5.70;3.80;;;;;;;10.63;87.03;97325.91;105175;1261;74129;-22
2023/10/26 03:18:37;;;;;;;5.10;3.60;;;;;;;10.95;85.10;97328.62;105254;1260;74116;-22
2023/10/26 03:21:05;;;;;;;4.90;4.00;;;;;;;10.89;84.78;97327.04;105205;1264;72601;-23
2023/10/26 03:23:32;;;;;;;6.90;3.90;;;;;;;10.57;85.41;97326.05;105225;1261;61150;-22
2023/10/26 03:25:59;;;;;;;7.20;3.20;;;;;;;10.38;86.22;97325.28;105193;1265;61169;-22
2023/10/26 03:28:27;;;;;;;4.80;3.80;;;;;;;10.55;87.11;97326.02;105163;1261;72694;-22
2023/10/26 03:30:53;;;;;;;6.60;4.20;;;;;;;10.82;85.94;97324.31;105138;1261;74268;-22
2023/10/26 03:33:20;;;;;;;9.00;4.70;;;;;;;10.64;86.31;97323.34;105127;1262;72733;-22
2023/10/26 03:35:47;;;;;;;9.90;4.40;;;;;;;10.53;86.39;97319.98;105132;1265;61229;-22
2023/10/26 03:38:14;;;;;;;7.30;3.70;;;;;;;10.36;86.51;97319.36;104962;1264;61230;-22
2023/10/26 03:40:41;;;;;;;10.00;3.80;;;;;;;10.56;86.79;97313.07;105079;1262;73811;-22
2023/10/26 03:43:08;;;;;;;7.90;4.60;;;;;;;10.85;85.79;97315.16;104966;1268;73905;-22
2023/10/26 03:45:35;;;;;;;6.80;4.60;;;;;;;10.79;85.10;97320.67;105276;1254;72507;-22
2023/10/26 03:48:03;;;;;;;6.70;4.90;;;;;;;10.58;85.97;97322.25;105835;1251;61098;-22
2023/10/26 03:50:30;;;;;;;4.10;3.30;;;;;;;10.32;86.87;97327.98;105647;1258;61179;-22
2023/10/26 03:52:57;;;;;;;5.20;3.90;;;;;;;10.25;88.45;97326.10;105626;1254;73828;-22
2023/10/26 03:55:23;;;;;;;6.60;4.50;;;;;;;10.58;87.71;97326.92;105530;1251;74054;-22
2023/10/26 03:57:51;;;;;;;8.60;5.20;;;;;;;10.60;86.88;97323.89;105657;1254;73179;-22
2023/10/26 04:00:18;;;;;;;9.20;5.30;;;;;;;10.45;86.85;97321.92;105636;1251;61659;-22
2023/10/26 04:02:45;;;;;;;5.50;4.50;;;;;;;10.20;87.90;97318.94;105878;1256;61173;-23
2023/10/26 04:05:12;;;;;;;4.70;3.40;;;;;;;10.10;88.32;97321.77;105849;1254;73827;-22
2023/10/26 04:10:09;;;;;;;7.10;4.50;;;;;;;10.81;86.07;97316.92;103015;1290;600731;-21
2023/10/26 04:12:37;;;;;;;8.00;4.80;;;;;;;10.69;85.88;97315.02;105011;1270;61248;-21
2023/10/26 04:22:47;;;;;;;3.60;3.00;;;;;;;10.53;87.58;97325.03;102612;1292;600119;-21
2023/10/26 04:25:14;;;;;;;8.10;5.00;;;;;;;10.50;86.80;97325.56;105293;1262;61190;-21
2023/10/26 04:35:23;;;;;;;11.30;5.40;;;;;;;10.47;88.07;97320.79;102733;1294;600088;-20
2023/10/26 04:37:52;;;;;;;6.60;4.70;;;;;;;10.52;86.87;97322.55;105070;1269;61231;-21
2023/10/26 04:40:19;;;;;;;8.50;5.20;;;;;;;10.33;87.53;97330.09;105084;1264;61116;-21
2023/10/26 04:42:47;;;;;;;8.10;5.70;;;;;;;10.23;87.78;97333.12;104829;1264;72308;-21
2023/10/26 04:45:15;;;;;;;6.60;4.70;;;;;;;9.99;88.62;97332.48;104803;1269;73509;-21
2023/10/26 04:47:42;;;;;;;7.80;5.40;;;;;;;10.30;88.41;97335.27;104777;1264;71445;-23
2023/10/26 04:50:11;;;;;;;7.90;5.70;;;;;;;10.48;87.57;97336.14;102707;1264;3151961;-23
2023/10/26 04:52:38;;;;;;;7.60;5.80;;;;;;;10.43;87.55;97337.24;105162;1264;61101;-23
2023/10/26 05:02:45;;;;;;;9.70;5.90;;;;;;;10.71;87.08;97332.58;102635;1304;600183;-21
2023/10/26 05:05:12;;;;;;;8.50;6.10;;;;;;;10.68;86.66;97341.44;104872;1270;61218;-21
2023/10/26 05:07:40;;;;;;;8.50;6.20;;;;;;;10.38;87.57;97346.70;104811;1271;61202;-21
2023/10/26 05:17:46;;;;;;;8.90;6.10;;;;;;;10.70;86.81;97354.80;102742;1295;600133;-24
2023/10/26 05:20:13;;;;;;;10.60;6.20;;;;;;;10.38;87.82;97355.98;105245;1266;61256;-21
2023/10/26 05:22:41;;;;;;;6.80;5.30;;;;;;;10.19;89.17;97354.67;105203;1261;61100;-21
2023/10/26 05:25:11;;;;;;;7.50;5.00;;;;;;;10.57;88.38;97357.70;105209;1261;72525;-21
2023/10/26 05:27:39;;;;;;;7.70;5.90;;;;;;;10.81;86.84;97359.30;105226;1266;73043;-21
2023/10/26 05:30:07;;;;;;;8.10;5.80;;;;;;;10.69;86.63;97360.67;105244;1261;72658;-21
2023/10/26 05:32:35;;;;;;;7.90;6.00;;;;;;;10.44;87.82;97361.34;103064;1263;3277268;-21
2023/10/26 05:35:05;;;;;;;7.00;5.00;;;;;;;10.23;88.91;97362.66;105447;1263;61287;-22
2023/10/26 05:37:33;;;;;;;7.70;5.60;;;;;;;10.56;88.87;97369.65;105217;1268;72203;-21
2023/10/26 05:40:00;;;;;;;7.70;6.00;;;;;;;10.83;87.26;97366.94;105254;1265;74254;-22
2023/10/26 05:42:28;;;;;;;7.00;5.30;;;;;;;10.79;86.93;97365.30;105221;1264;71342;-22
2023/10/26 05:44:56;;;;;;;10.60;6.80;;;;;;;10.57;87.71;97369.52;105126;1259;61263;-22
2023/10/26 05:47:24;;;;;;;13.30;9.60;;;;;;;10.49;88.28;97373.55;105215;1267;61128;-22
2023/10/26 05:49:52;;;;;;;7.50;5.60;;;;;;;10.58;88.22;97378.40;105212;1261;71280;-22
2023/10/26 05:59:59;;;;;;;9.20;5.40;;;;;;;10.66;87.51;97374.15;102724;1294;600229;-21
2023/10/26 06:02:26;;;;;;;8.40;5.50;;;;;;;10.61;88.24;97371.52;104904;1268;61650;-21
2023/10/26 06:04:54;;;;;;;7.50;5.40;;;;;;;10.97;87.27;97374.73;105468;1257;61165;-23
2023/10/26 06:07:22;;;;;;;10.50;6.00;;;;;;;11.05;86.19;97377.09;105379;1258;70151;-21
2023/10/26 06:09:50;;;;;;;8.50;6.10;;;;;;;10.88;86.78;97384.23;105384;1264;75175;-22
2023/10/26 06:12:18;;;;;;;11.50;7.30;;;;;;;10.77;87.14;97385.63;105408;1263;72980;-22
2023/10/26 06:14:46;;;;;;;8.50;5.50;;;;;;;10.60;88.09;97386.80;103154;1258;3244920;-22
2023/10/26 06:17:13;;;;;;;8.00;6.30;;;;;;;10.99;87.33;97386.22;105589;1257;61061;-22
2023/10/26 06:19:41;;;;;;;11.60;6.50;;;;;;;11.28;85.94;97392.19;105594;1263;74844;-22
2023/10/26 06:22:09;;;;;;;10.00;6.60;;;;;;;11.12;85.63;97390.30;105586;1257;73060;-22
2023/10/26 06:24:37;;;;;;;8.60;6.20;;;;;;;10.99;86.06;97395.85;105630;1258;72625;-22
2023/10/26 06:27:04;;;;;;;8.60;5.30;;;;;;;10.84;86.82;97395.29;105470;1260;61115;-22
2023/10/26 06:29:32;;;;;;;9.10;5.90;;;;;;;11.10;86.57;97396.07;105296;1262;61167;-22
2023/10/26 06:39:40;;;;;;;9.00;5.80;;;;;;;10.99;86.45;97384.98;102628;1295;600132;-23
2023/10/26 06:42:07;;;;;;;6.70;5.20;;;;;;;11.34;85.77;97386.43;105017;1265;61193;-23
2023/10/26 06:44:39;;;;;;;11.60;7.00;;;;;;;11.37;84.69;97387.07;104851;1270;61088;-21
2023/10/26 06:47:06;;;;;;;8.50;6.80;;;;;;;11.23;85.16;97389.25;104886;1269;70981;-21
2023/10/26 06:49:34;;;;;;;10.50;6.70;;;;;;;11.01;86.24;97383.06;105044;1269;73169;-21
2023/10/26 06:52:02;;;;;;;6.00;4.80;;;;;;;10.94;86.74;97384.31;104842;1267;71712;-21
2023/10/26 06:54:29;;;;;;;8.50;5.80;;;;;;;11.37;86.17;97386.85;102628;1269;61243;-21
2023/10/26 06:56:58;;;;;;;11.40;6.80;;;;;;;11.75;84.31;97383.61;104928;1264;61102;-21
2023/10/26 06:59:25;;;;;;;10.30;7.00;;;;;;;11.74;83.76;97382.97;105203;1269;61248;-21
2023/10/26 07:01:53;;;;;;;9.50;7.30;;;;;;;11.58;84.16;97380.95;105134;1269;74470;-21
2023/10/26 07:04:37;;;;;;;15.70;12.80;;;;;;;11.30;84.97;97379.55;104872;1267;72671;-23
2023/10/26 07:14:44;;;;;;;12.40;8.60;;;;;;;12.03;83.39;97382.55;102617;1293;600826;-21
2023/10/26 07:17:12;;;;;;;13.60;9.60;;;;;;;11.79;83.19;97384.70;104807;1272;61177;-21
2023/10/26 07:19:39;;;;;;;16.40;12.60;;;;;;;11.53;83.98;97387.60;104836;1268;61250;-21
2023/10/26 07:22:07;;;;;;;11.10;8.30;;;;;;;11.47;84.77;97395.04;104810;1267;71042;-21
2023/10/26 07:24:35;;;;;;;12.40;9.10;;;;;;;11.87;84.16;97395.02;104817;1266;74296;-21
2023/10/26 07:27:03;;;;;;;16.50;10.30;;;;;;;11.93;82.96;97392.45;104799;1267;73359;-21
2023/10/26 07:29:31;;;;;;;11.20;8.50;;;;;;;11.97;83.23;97397.27;102609;1264;3289175;-21
2023/10/26 07:31:59;;;;;;;12.60;9.20;;;;;;;11.65;83.82;97396.35;105105;1263;61131;-21
2023/10/26 07:34:27;;;;;;;9.40;8.30;;;;;;;11.51;84.26;97397.88;105075;1268;72377;-21
2023/10/26 07:36:55;;;;;;;9.40;6.80;;;;;;;11.62;84.52;97400.19;104814;1269;74336;-22
2023/10/26 07:39:22;;;;;;;12.60;8.10;;;;;;;12.00;83.54;97398.48;105091;1263;71083;-22
2023/10/26 07:42:10;;;;;;;9.20;6.90;;;;;;;12.04;83.06;97398.10;104958;1264;61199;-22
2023/10/26 07:44:38;;;;;;;11.50;7.70;;;;;;;11.94;82.97;97397.92;105112;1264;61129;-22
2023/10/26 07:47:08;;;;;;;12.30;8.60;;;;;;;11.66;83.36;97402.67;104882;1263;73242;-21
2023/10/26 07:49:36;;;;;;;7.80;5.30;;;;;;;11.72;84.28;97406.77;105131;1264;74617;-22
2023/10/26 07:52:05;;;;;;;9.50;7.00;;;;;;;12.23;82.94;97406.70;105574;1257;72661;-22
2023/10/26 07:54:32;;;;;;;7.70;6.10;;;;;;;12.35;81.89;97406.75;105615;1257;61131;-22
2023/10/26 07:57:01;;;;;;;9.60;7.00;;;;;;;12.11;82.52;97407.41;105506;1257;61160;-22
2023/10/26 07:59:31;;;;;;;15.10;10.80;;;;;;;11.95;83.15;97405.63;105527;1260;73050;-22
2023/10/26 08:09:42;;;;;;;9.60;7.30;;;;;;;12.20;82.57;97401.83;102679;1293;600146;-21
2023/10/26 08:12:10;;;;;;;11.60;8.70;;;;;;;12.14;82.78;97398.19;104817;1272;61230;-24
2023/10/26 08:14:38;;;;;;;8.90;7.10;;;;;;;12.03;83.22;97398.82;104788;1266;61177;-23
2023/10/26 08:17:25;;;;;;;5.80;4.70;;;;;;;11.96;83.34;97399.61;104718;1267;70194;-23
2023/10/26 08:27:35;;;;;;;10.80;7.40;;;;;;;12.58;80.98;97407.36;102703;1290;599939;-22
2023/10/26 08:30:04;;;;;;;13.50;10.10;;;;;;;12.27;81.94;97409.92;104937;1270;61248;-21
2023/10/26 08:32:32;;;;;;;16.80;14.10;;;;;;;12.02;83.15;97409.55;104832;1275;61116;-21
2023/10/26 08:35:00;;;;;;;13.00;9.90;;;;;;;12.39;82.60;97408.67;104920;1270;72377;-21
2023/10/26 08:37:28;;;;;;;10.30;8.20;;;;;;;12.75;81.25;97403.35;105072;1264;73287;-23
2023/10/26 08:39:56;;;;;;;10.50;8.20;;;;;;;12.69;80.66;97401.48;104922;1271;72674;-24
2023/10/26 08:42:24;;;;;;;15.70;9.30;;;;;;;12.47;81.26;97401.01;102804;1267;61298;-21
2023/10/26 08:44:52;;;;;;;10.00;8.10;;;;;;;12.21;82.28;97403.41;105158;1264;61176;-23
2023/10/26 08:47:20;;;;;;;9.90;6.10;;;;;;;12.16;83.22;97401.38;104866;1269;61205;-23
2023/10/26 08:49:52;;;;;;;35.60;31.60;;;;;;;12.69;81.79;97401.30;104949;1264;74501;-23
2023/10/26 08:52:41;;;;;;;23.20;20.90;;;;;;;13.06;80.79;97399.58;104724;1270;72765;-21
2023/10/26 08:55:08;;;;;;;13.90;11.20;;;;;;;13.05;80.15;97400.80;104867;1270;61153;-21
2023/10/26 08:57:47;;;;;;;16.90;13.30;;;;;;;12.82;80.21;97402.02;105077;1264;61111;-23
2023/10/26 09:00:15;;;;;;;18.70;13.40;;;;;;;12.51;80.96;97402.15;104920;1264;73161;-21
2023/10/26 09:02:50;;;;;;;11.20;9.90;;;;;;;12.28;81.90;97410.10;104886;1264;75086;-22
2023/10/26 09:05:18;;;;;;;11.00;9.90;;;;;;;12.60;81.87;97412.36;105165;1267;71050;-23
2023/10/26 09:07:46;;;;;;;12.30;10.50;;;;;;;12.94;80.91;97417.90;105073;1264;61220;-23
2023/10/26 09:10:28;;;;;;;10.90;8.80;;;;;;;12.83;80.58;97419.32;105005;1267;61628;-22
2023/10/26 09:13:03;;;;;;;12.80;8.70;;;;;;;12.60;81.09;97416.98;104786;1272;73197;-22
2023/10/26 09:15:31;;;;;;;12.10;10.60;;;;;;;12.41;81.82;97427.09;104825;1264;74095;-22
2023/10/26 09:18:00;;;;;;;10.30;6.30;;;;;;;12.29;82.45;97422.60;104767;1272;72809;-22
2023/10/26 09:20:28;;;;;;;11.90;8.50;;;;;;;12.76;81.87;97423.27;105158;1269;61128;-22
2023/10/26 09:22:59;;;;;;;10.20;7.50;;;;;;;13.16;80.02;97420.85;105285;1264;61175;-22
2023/10/26 09:25:26;;;;;;;14.50;8.60;;;;;;;13.22;79.83;97417.06;105284;1265;73667;-22
2023/10/26 09:28:01;;;;;;;17.60;14.30;;;;;;;13.09;80.12;97417.66;105246;1266;74731;-22
2023/10/26 09:30:29;;;;;;;14.50;11.10;;;;;;;12.88;80.73;97412.15;105115;1264;71781;-22
2023/10/26 09:32:57;;;;;;;13.10;9.30;;;;;;;12.71;81.93;97412.05;105288;1264;61109;-22
2023/10/26 09:35:27;;;;;;;9.40;7.00;;;;;;;12.58;82.47;97408.15;105249;1264;61073;-22
2023/10/26 09:37:55;;;;;;;10.10;6.80;;;;;;;12.93;82.70;97405.48;105266;1266;72474;-22
2023/10/26 09:40:23;;;;;;;12.20;8.10;;;;;;;13.27;81.25;97402.20;105211;1261;75059;-22
2023/10/26 09:42:51;;;;;;;11.30;8.70;;;;;;;13.15;81.39;97396.99;105224;1266;72896;-22
2023/10/26 09:45:19;;;;;;;10.40;7.70;;;;;;;13.00;82.45;97393.38;105232;1265;61170;-22
2023/10/26 09:47:47;;;;;;;9.70;6.90;;;;;;;12.70;82.54;97391.73;105291;1266;61224;-22
2023/10/26 09:50:15;;;;;;;8.10;6.50;;;;;;;12.57;83.14;97393.28;105233;1266;73669;-22
2023/10/26 09:52:43;;;;;;;9.30;6.80;;;;;;;12.94;82.85;97388.44;105244;1265;74521;-23
2023/10/26 09:55:11;;;;;;;8.00;6.70;;;;;;;13.09;82.18;97389.64;105214;1265;72706;-22
2023/10/26 09:58:03;;;;;;;9.50;7.30;;;;;;;13.05;82.24;97379.45;105171;1266;61272;-22
2023/10/26 10:00:32;;;;;;;11.40;7.20;;;;;;;12.90;81.83;97368.00;105092;1260;61178;-22
2023/10/26 10:03:10;;;;;;;14.50;7.80;;;;;;;12.79;82.21;97365.47;105015;1266;73721;-22
2023/10/26 10:05:40;;;;;;;9.80;7.10;;;;;;;13.39;82.61;97359.42;105078;1267;74493;-22
2023/10/26 10:08:08;;;;;;;8.40;6.40;;;;;;;13.98;80.03;97351.20;105220;1265;71745;-22
2023/10/26 10:10:36;;;;;;;7.80;6.80;;;;;;;14.10;79.06;97349.17;105100;1266;61221;-22
2023/10/26 10:13:04;;;;;;;7.90;6.30;;;;;;;14.03;79.11;97349.58;105069;1265;61160;-22
2023/10/26 10:15:39;;;;;;;9.90;7.20;;;;;;;13.84;78.60;97351.16;105064;1264;71836;-22
2023/10/26 10:18:09;;;;;;;11.00;9.10;;;;;;;13.60;78.93;97353.59;104875;1267;74516;-22
2023/10/26 10:20:40;;;;;;;9.50;5.80;;;;;;;13.44;80.10;97355.23;105165;1266;73284;-22
2023/10/26 10:23:08;;;;;;;12.50;6.80;;;;;;;13.93;80.13;97354.41;105209;1261;61139;-22
2023/10/26 10:25:56;;;;;;;6.70;5.80;;;;;;;14.19;78.92;97352.88;105170;1266;61187;-23
2023/10/26 10:28:40;;;;;;;12.60;6.90;;;;;;;14.06;78.28;97347.05;105260;1261;73135;-23
2023/10/26 10:31:09;;;;;;;10.60;7.80;;;;;;;13.76;78.23;97339.45;105252;1261;75132;-23
2023/10/26 10:33:39;;;;;;;10.50;8.50;;;;;;;13.42;79.48;97335.21;105258;1266;72870;-22
2023/10/26 10:36:08;;;;;;;8.10;5.10;;;;;;;13.29;81.41;97327.02;105257;1261;61102;-22
2023/10/26 10:38:35;;;;;;;7.50;6.20;;;;;;;13.82;81.60;97328.12;104982;1261;61119;-23
2023/10/26 10:48:57;;;;;;;12.70;8.30;;;;;;;14.03;79.03;97317.58;103332;1289;599928;-23
2023/10/26 10:51:31;;;;;;;13.20;8.40;;;;;;;13.83;79.30;97317.80;104850;1266;61219;-23
2023/10/26 10:54:00;;;;;;;10.70;6.10;;;;;;;13.75;80.31;97318.55;104823;1271;61190;-23
2023/10/26 10:56:37;;;;;;;14.50;8.70;;;;;;;14.27;80.13;97318.19;104823;1270;72865;-23
2023/10/26 10:59:16;;;;;;;16.00;11.00;;;;;;;14.59;77.97;97316.93;104823;1272;73092;-23
2023/10/26 11:01:44;;;;;;;13.60;10.20;;;;;;;14.58;77.88;97313.95;102880;1257;3328249;-23
2023/10/26 11:04:15;;;;;;;14.20;9.60;;;;;;;14.43;78.29;97312.54;105588;1257;61017;-23
2023/10/26 11:06:47;;;;;;;14.50;9.90;;;;;;;14.21;78.88;97307.71;105577;1254;61121;-22
2023/10/26 11:09:29;;;;;;;9.30;7.20;;;;;;;14.01;79.78;97301.06;105244;1257;72886;-23
2023/10/26 11:12:07;;;;;;;13.80;8.20;;;;;;;14.45;79.37;97305.05;105664;1259;73383;-23
2023/10/26 11:14:35;;;;;;;12.00;8.10;;;;;;;14.76;77.63;97302.63;105590;1257;72673;-23
2023/10/26 11:17:03;;;;;;;11.40;8.40;;;;;;;14.77;77.50;97304.88;105616;1261;61215;-23
2023/10/26 11:19:35;;;;;;;11.20;8.70;;;;;;;14.63;77.75;97304.30;105583;1261;61281;-23
2023/10/26 11:22:04;;;;;;;13.80;10.10;;;;;;;14.40;78.33;97302.64;105516;1260;72482;-22
2023/10/26 11:24:32;;;;;;;16.30;12.00;;;;;;;14.18;79.36;97298.35;105588;1257;73997;-23
2023/10/26 11:27:09;;;;;;;11.70;7.00;;;;;;;14.06;80.07;97293.63;105324;1261;73336;-23
2023/10/26 11:29:37;;;;;;;9.20;6.40;;;;;;;14.59;79.74;97292.73;105360;1258;61100;-23
2023/10/26 11:32:18;;;;;;;8.00;6.70;;;;;;;14.98;77.54;97299.33;105295;1257;61158;-23
2023/10/26 11:35:06;;;;;;;11.80;7.60;;;;;;;14.94;77.05;97302.61;105279;1264;73674;-23
2023/10/26 11:37:35;;;;;;;12.70;7.90;;;;;;;14.67;77.48;97298.93;105524;1263;74662;-23
2023/10/26 11:40:07;;;;;;;9.60;8.20;;;;;;;14.37;78.45;97295.79;105377;1259;72153;-22
2023/10/26 11:43:04;;;;;;;10.30;9.20;;;;;;;14.12;79.22;97293.13;105510;1257;61112;-22
2023/10/26 11:45:47;;;;;;;10.90;8.20;;;;;;;14.14;80.30;97286.61;105507;1260;61106;-23
2023/10/26 11:48:29;;;;;;;8.90;7.40;;;;;;;14.63;79.27;97282.79;105301;1263;73135;-23
2023/10/26 11:50:57;;;;;;;6.90;6.20;;;;;;;14.74;78.33;97278.10;105547;1257;75195;-23
2023/10/26 11:53:26;;;;;;;9.60;7.00;;;;;;;14.57;78.70;97274.25;105626;1255;72745;-23
2023/10/26 11:55:54;;;;;;;9.00;7.40;;;;;;;14.38;78.88;97274.13;105731;1254;60994;-23
2023/10/26 11:58:21;;;;;;;10.20;7.70;;;;;;;14.16;79.68;97275.92;105673;1253;61168;-23
2023/10/26 12:00:49;;;;;;;6.50;4.30;;;;;;;14.00;80.53;97281.73;105681;1258;73681;-22
2023/10/26 12:03:17;;;;;;;9.10;5.80;;;;;;;14.49;80.43;97282.75;105673;1259;74252;-23
2023/10/26 12:05:45;;;;;;;7.40;6.10;;;;;;;15.04;78.57;97279.42;105681;1259;73256;-23
2023/10/26 12:08:12;;;;;;;8.90;6.40;;;;;;;15.06;77.23;97275.63;105632;1259;61183;-23
2023/10/26 12:10:41;;;;;;;7.70;6.10;;;;;;;14.89;77.57;97275.86;105691;1254;61062;-22
2023/10/26 12:13:08;;;;;;;8.10;6.60;;;;;;;14.71;77.99;97279.37;105778;1257;72721;-23
2023/10/26 12:15:36;;;;;;;8.80;6.50;;;;;;;14.52;78.37;97274.35;105694;1258;73972;-22
2023/10/26 12:18:04;;;;;;;7.60;5.20;;;;;;;14.39;79.12;97275.23;105662;1254;73350;-23
2023/10/26 12:20:32;;;;;;;6.40;5.50;;;;;;;14.91;78.97;97270.41;105641;1255;61217;-23
2023/10/26 12:22:59;;;;;;;8.20;6.30;;;;;;;15.51;77.16;97265.84;105701;1253;61058;-24
2023/10/26 12:25:27;;;;;;;13.70;5.80;;;;;;;15.66;76.53;97259.52;105664;1253;72921;-23
2023/10/26 12:27:56;;;;;;;7.90;6.20;;;;;;;15.59;75.97;97260.31;105582;1254;75087;-22
2023/10/26 12:30:45;;;;;;;8.30;6.40;;;;;;;15.29;76.29;97258.91;105562;1257;72143;-22
2023/10/26 12:33:13;;;;;;;8.80;6.20;;;;;;;15.03;76.91;97251.44;105583;1254;61154;-23
2023/10/26 12:35:41;;;;;;;7.20;5.40;;;;;;;14.73;78.10;97246.18;105654;1254;61108;-24
2023/10/26 12:38:09;;;;;;;8.10;5.60;;;;;;;15.05;77.95;97246.40;105680;1254;73252;-25
2023/10/26 12:40:36;;;;;;;8.40;7.00;;;;;;;15.38;76.33;97240.61;105665;1259;74455;-23
2023/10/26 12:43:04;;;;;;;8.90;6.50;;;;;;;15.32;76.12;97241.33;105638;1254;71483;-23
2023/10/26 12:45:32;;;;;;;10.00;7.40;;;;;;;15.10;76.57;97244.48;105661;1254;61097;-24
2023/10/26 12:47:59;;;;;;;7.30;6.50;;;;;;;14.85;77.50;97247.39;105631;1254;61102;-24
2023/10/26 12:50:28;;;;;;;8.00;7.20;;;;;;;14.62;78.27;97246.56;105522;1259;73071;-23